地図

経路データ

SID SEASON NUMBER BASIN SUBBASIN NAME ISO_TIME NATURE LAT LON WMO_WIND WMO_PRES WMO_AGENCY TRACK_TYPE DIST2LAND LANDFALL IFLAG USA_AGENCY USA_ATCF_ID USA_LAT USA_LON USA_RECORD USA_STATUS USA_WIND USA_PRES USA_SSHS USA_R34_NE USA_R34_SE USA_R34_SW USA_R34_NW USA_R50_NE USA_R50_SE USA_R50_SW USA_R50_NW USA_R64_NE USA_R64_SE USA_R64_SW USA_R64_NW USA_POCI USA_ROCI USA_RMW USA_EYE TOKYO_LAT TOKYO_LON TOKYO_GRADE TOKYO_WIND TOKYO_PRES TOKYO_R50_DIR TOKYO_R50_LONG TOKYO_R50_SHORT TOKYO_R30_DIR TOKYO_R30_LONG TOKYO_R30_SHORT TOKYO_LAND CMA_LAT CMA_LON CMA_CAT CMA_WIND CMA_PRES HKO_LAT HKO_LON HKO_CAT HKO_WIND HKO_PRES NEWDELHI_LAT NEWDELHI_LON NEWDELHI_GRADE NEWDELHI_WIND NEWDELHI_PRES NEWDELHI_CI NEWDELHI_DP NEWDELHI_POCI REUNION_LAT REUNION_LON REUNION_TYPE REUNION_WIND REUNION_PRES REUNION_TNUM REUNION_CI REUNION_RMW REUNION_R34_NE REUNION_R34_SE REUNION_R34_SW REUNION_R34_NW REUNION_R50_NE REUNION_R50_SE REUNION_R50_SW REUNION_R50_NW REUNION_R64_NE REUNION_R64_SE REUNION_R64_SW REUNION_R64_NW BOM_LAT BOM_LON BOM_TYPE BOM_WIND BOM_PRES BOM_TNUM BOM_CI BOM_RMW BOM_R34_NE BOM_R34_SE BOM_R34_SW BOM_R34_NW BOM_R50_NE BOM_R50_SE BOM_R50_SW BOM_R50_NW BOM_R64_NE BOM_R64_SE BOM_R64_SW BOM_R64_NW BOM_ROCI BOM_POCI BOM_EYE BOM_POS_METHOD BOM_PRES_METHOD NADI_LAT NADI_LON NADI_CAT NADI_WIND NADI_PRES WELLINGTON_LAT WELLINGTON_LON WELLINGTON_WIND WELLINGTON_PRES DS824_LAT DS824_LON DS824_STAGE DS824_WIND DS824_PRES TD9636_LAT TD9636_LON TD9636_STAGE TD9636_WIND TD9636_PRES TD9635_LAT TD9635_LON TD9635_WIND TD9635_PRES TD9635_ROCI NEUMANN_LAT NEUMANN_LON NEUMANN_CLASS NEUMANN_WIND NEUMANN_PRES MLC_LAT MLC_LON MLC_CLASS MLC_WIND MLC_PRES USA_GUST BOM_GUST BOM_GUST_PER REUNION_GUST REUNION_GUST_PER USA_SEAHGT USA_SEARAD_NE USA_SEARAD_SE USA_SEARAD_SW USA_SEARAD_NW STORM_SPEED STORM_DIR
1922251N13133 1922 47 WP MM NOT_NAMED 1922-09-08 09:00:00 NR 13.2000 133.200 main 841 841 __________O___ -1 13.2000 133.200 2 9 353
1922251N13133 1922 47 WP MM NOT_NAMED 1922-09-08 12:00:00 NR 13.6609 133.148 main 840 840 __________P___ -1 13.6609 133.148 2 10 352
1922251N13133 1922 47 WP MM NOT_NAMED 1922-09-08 15:00:00 NR 14.1475 133.067 main 850 842 __________P___ -1 14.1475 133.067 2 11 348
1922251N13133 1922 47 WP MM NOT_NAMED 1922-09-08 18:00:00 NR 14.6853 132.928 main 848 845 __________P___ -1 14.6853 132.928 2 12 343
1922251N13133 1922 47 WP MM NOT_NAMED 1922-09-08 21:00:00 NR 15.3000 132.700 main 851 846 __________O___ -1 15.3000 132.700 2 14 338
1922251N13133 1922 47 WP MM NOT_NAMED 1922-09-09 00:00:00 NR 16.0071 132.362 main 857 847 __________P___ -1 16.0071 132.362 2 17 333
1922251N13133 1922 47 WP MM NOT_NAMED 1922-09-09 03:00:00 NR 16.7822 131.922 main 860 850 __________P___ -1 16.7822 131.922 2 18 330
1922251N13133 1922 47 WP MM NOT_NAMED 1922-09-09 06:00:00 NR 17.5912 131.396 main 856 845 __________P___ -1 17.5912 131.396 2 19 327
1922251N13133 1922 47 WP MM NOT_NAMED 1922-09-09 09:00:00 NR 18.4000 130.800 main 849 835 __________O___ -1 18.4000 130.800 2 20 323
1922251N13133 1922 47 WP MM NOT_NAMED 1922-09-09 12:00:00 NR 19.2070 130.126 main 825 766 __________P___ -1 19.2070 130.126 2 21 320
1922251N13133 1922 47 WP MM NOT_NAMED 1922-09-09 15:00:00 NR 19.9991 129.396 main 766 718 __________P___ -1 19.9991 129.396 2 21 318
1922251N13133 1922 47 WP MM NOT_NAMED 1922-09-09 18:00:00 NR 20.7415 128.667 main 718 683 __________P___ -1 20.7415 128.667 2 19 317
1922251N13133 1922 47 WP MM NOT_NAMED 1922-09-09 21:00:00 NR 21.4000 128.000 main 683 640 __________O___ -1 21.4000 128.000 2 16 318
1922251N13133 1922 47 WP MM NOT_NAMED 1922-09-10 00:00:00 NR 21.9296 127.514 main 640 579 __________P___ -1 21.9296 127.514 2 13 319
1922251N13133 1922 47 WP MM NOT_NAMED 1922-09-10 03:00:00 NR 22.3789 127.094 main 579 524 __________P___ -1 22.3789 127.094 2 12 318
1922251N13133 1922 47 WP MM NOT_NAMED 1922-09-10 06:00:00 NR 22.7889 126.677 main 524 460 __________P___ -1 22.7889 126.677 2 12 315
1922251N13133 1922 47 WP MM NOT_NAMED 1922-09-10 09:00:00 NR 23.2000 126.200 main 460 385 __________O___ -1 23.2000 126.200 2 14 311
1922251N13133 1922 47 WP MM NOT_NAMED 1922-09-10 12:00:00 NR 23.7060 125.530 main 375 295 __________P___ -1 23.7060 125.530 2 16 308
1922251N13133 1922 47 WP MM NOT_NAMED 1922-09-10 15:00:00 NR 24.2124 124.796 main 295 214 __________P___ -1 24.2124 124.796 2 17 306
1922251N13133 1922 47 WP MM NOT_NAMED 1922-09-10 18:00:00 NR 24.6874 124.064 main 214 141 __________P___ -1 24.6874 124.064 2 16 305
1922251N13133 1922 47 WP MM NOT_NAMED 1922-09-10 21:00:00 NR 25.1000 123.400 main 141 106 __________O___ -1 25.1000 123.400 2 13 305
1922251N13133 1922 47 WP MM NOT_NAMED 1922-09-11 00:00:00 NR 25.4037 122.933 main 100 89 __________P___ -1 25.4037 122.933 2 10 305
1922251N13133 1922 47 WP MM NOT_NAMED 1922-09-11 03:00:00 NR 25.6486 122.537 main 83 83 __________P___ -1 25.6486 122.537 2 8 303
1922251N13133 1922 47 WP MM NOT_NAMED 1922-09-11 06:00:00 NR 25.8694 122.149 main 92 87 __________P___ -1 25.8694 122.149 2 9 301
1922251N13133 1922 47 WP MM NOT_NAMED 1922-09-11 09:00:00 NR 26.1000 121.700 main 101 100 __________O___ -1 26.1000 121.700 2 11 298
1922251N13133 1922 47 WP MM NOT_NAMED 1922-09-11 12:00:00 NR 26.3917 121.041 main 92 29 __________P___ -1 26.3917 121.041 2 14 296
1922251N13133 1922 47 WP MM NOT_NAMED 1922-09-11 15:00:00 NR 26.6955 120.322 main 19 0 __________P___ -1 26.6955 120.322 2 14 296
1922251N13133 1922 47 WP MM NOT_NAMED 1922-09-11 18:00:00 NR 27.0012 119.616 main 0 0 __________P___ -1 27.0012 119.616 2 13 297
1922251N13133 1922 47 WP MM NOT_NAMED 1922-09-11 21:00:00 NR 27.3000 119.000 main 0 0 __________O___ -1 27.3000 119.000 2 11 300
1922251N13133 1922 47 WP MM NOT_NAMED 1922-09-12 00:00:00 NR 27.5603 118.544 main 0 0 __________P___ -1 27.5603 118.544 2 9 306
1922251N13133 1922 47 WP MM NOT_NAMED 1922-09-12 03:00:00 NR 27.8182 118.191 main 0 0 __________P___ -1 27.8182 118.191 2 8 314
1922251N13133 1922 47 WP MM NOT_NAMED 1922-09-12 06:00:00 NR 28.0921 117.917 main 0 0 __________P___ -1 28.0921 117.917 2 7 323
1922251N13133 1922 47 WP MM NOT_NAMED 1922-09-12 09:00:00 NR 28.4000 117.700 main 0 0 __________O___ -1 28.4000 117.700 2 7 320
1922251N13133 1922 47 WP MM NOT_NAMED 1922-09-12 12:00:00 NR 28.6417 117.391 main 0 0 __________P___ -1 28.6417 117.391 2 7 318
1922251N13133 1922 47 WP MM NOT_NAMED 1922-09-12 15:00:00 NR 28.9365 117.147 main 0 0 __________P___ -1 28.9365 117.147 2 8 336
1922251N13133 1922 47 WP MM NOT_NAMED 1922-09-12 18:00:00 NR 29.3630 117.029 main 0 0 __________P___ -1 29.3630 117.029 2 11 358
1922251N13133 1922 47 WP MM NOT_NAMED 1922-09-12 21:00:00 NR 30.0000 117.100 main 0 0 __________O___ -1 30.0000 117.100 2 17 10
1922251N13133 1922 47 WP MM NOT_NAMED 1922-09-13 00:00:00 NR 31.0023 117.375 main 0 0 __________P___ -1 31.0023 117.375 2 23 16
1922251N13133 1922 47 WP MM NOT_NAMED 1922-09-13 03:00:00 NR 32.2009 117.856 main 0 0 __________P___ -1 32.2009 117.856 2 26 21
1922251N13133 1922 47 WP MM NOT_NAMED 1922-09-13 06:00:00 NR 33.4490 118.510 main 0 0 __________P___ -1 33.4490 118.510 2 27 27
1922251N13133 1922 47 WP MM NOT_NAMED 1922-09-13 09:00:00 NR 34.6000 119.300 main 0 0 __________O___ -1 34.6000 119.300 2 25 33
1922251N13133 1922 47 WP MM NOT_NAMED 1922-09-13 12:00:00 NR 35.5363 120.129 main 21 0 __________P___ -1 35.5363 120.129 2 23 40
1922251N13133 1922 47 WP MM NOT_NAMED 1922-09-13 15:00:00 NR 36.3417 121.079 main 21 0 __________P___ -1 36.3417 121.079 2 22 48
1922251N13133 1922 47 WP MM NOT_NAMED 1922-09-13 18:00:00 NR 37.0012 122.116 main 0 0 __________P___ -1 37.0012 122.116 2 21 56
1922251N13133 1922 47 WP MM NOT_NAMED 1922-09-13 21:00:00 NR 37.5000 123.200 main 57 55 __________O___ -1 37.5000 123.200 2 19 64
1922251N13133 1922 47 WP MM NOT_NAMED 1922-09-14 00:00:00 NR 37.8305 124.263 main 48 0 __________P___ -1 37.8305 124.263 2 18 73
1922251N13133 1922 47 WP MM NOT_NAMED 1922-09-14 03:00:00 NR 38.0112 125.355 main 0 0 __________P___ -1 38.0112 125.355 2 18 81
1922251N13133 1922 47 WP MM NOT_NAMED 1922-09-14 06:00:00 NR 38.1112 126.468 main 0 0 __________P___ -1 38.1112 126.468 2 18 84
1922251N13133 1922 47 WP MM NOT_NAMED 1922-09-14 09:00:00 NR 38.2000 127.600 main 0 0 __________O___ -1 38.2000 127.600 2 18 83
1922251N13133 1922 47 WP MM NOT_NAMED 1922-09-14 12:00:00 NR 38.3322 128.751 main 26 26 __________P___ -1 38.3322 128.751 2 18 80
1922251N13133 1922 47 WP MM NOT_NAMED 1922-09-14 15:00:00 NR 38.5047 129.920 main 113 113 __________P___ -1 38.5047 129.920 2 19 79
1922251N13133 1922 47 WP MM NOT_NAMED 1922-09-14 18:00:00 NR 38.6999 131.104 main 206 206 __________P___ -1 38.6999 131.104 2 19 78
1922251N13133 1922 47 WP MM NOT_NAMED 1922-09-14 21:00:00 NR 38.9000 132.300 main 306 __________O___ -1 38.9000 132.300 2 19 78

デジタル台風データ・検索

IBTrACS Databaseについて

本データベースは、米国NOAAが公開する1842年以降の世界の熱帯低気圧のベストトラックデータアーカイブInternational Best Track Archive for Climate Stewardship (IBTrACS)を、ウェブで閲覧しやすい形式に変換したものです。

最終更新日:2021-12-06